sensor_id;sensor_type;location;lat;lon;timestamp;P1;durP1;ratioP1;P2;durP2;ratioP2
28828;SDS011;15966;51.540;11.870;2023-05-14T00:02:20;5.00;;;4.57;;
28828;SDS011;15966;51.540;11.870;2023-05-14T00:04:46;6.70;;;6.00;;
28828;SDS011;15966;51.540;11.870;2023-05-14T00:07:12;7.28;;;6.57;;
28828;SDS011;15966;51.540;11.870;2023-05-14T00:09:38;6.50;;;6.00;;
28828;SDS011;15966;51.540;11.870;2023-05-14T00:12:04;7.35;;;6.30;;
28828;SDS011;15966;51.540;11.870;2023-05-14T00:14:30;6.50;;;5.90;;
28828;SDS011;15966;51.540;11.870;2023-05-14T00:16:56;6.25;;;5.35;;
28828;SDS011;15966;51.540;11.870;2023-05-14T00:19:23;6.00;;;5.50;;
28828;SDS011;15966;51.540;11.870;2023-05-14T00:21:50;6.20;;;5.60;;
28828;SDS011;15966;51.540;11.870;2023-05-14T00:24:16;6.45;;;5.85;;
28828;SDS011;15966;51.540;11.870;2023-05-14T00:26:42;7.93;;;7.22;;
28828;SDS011;15966;51.540;11.870;2023-05-14T00:29:08;6.03;;;5.43;;
28828;SDS011;15966;51.540;11.870;2023-05-14T00:31:34;7.55;;;6.57;;
28828;SDS011;15966;51.540;11.870;2023-05-14T00:34:00;10.77;;;6.93;;
28828;SDS011;15966;51.540;11.870;2023-05-14T00:36:26;7.47;;;6.70;;
28828;SDS011;15966;51.540;11.870;2023-05-14T00:38:53;6.95;;;6.25;;
28828;SDS011;15966;51.540;11.870;2023-05-14T00:41:19;6.13;;;5.60;;
28828;SDS011;15966;51.540;11.870;2023-05-14T00:43:45;6.90;;;6.20;;
28828;SDS011;15966;51.540;11.870;2023-05-14T00:46:11;7.10;;;6.45;;
28828;SDS011;15966;51.540;11.870;2023-05-14T00:48:38;7.47;;;6.20;;
28828;SDS011;15966;51.540;11.870;2023-05-14T00:51:04;7.55;;;5.93;;
28828;SDS011;15966;51.540;11.870;2023-05-14T00:53:30;6.28;;;5.55;;
28828;SDS011;15966;51.540;11.870;2023-05-14T00:55:56;6.53;;;5.50;;
28828;SDS011;15966;51.540;11.870;2023-05-14T00:58:23;6.90;;;6.20;;
28828;SDS011;15966;51.540;11.870;2023-05-14T01:00:50;7.18;;;6.50;;
28828;SDS011;15966;51.540;11.870;2023-05-14T01:03:16;6.90;;;6.22;;
28828;SDS011;15966;51.540;11.870;2023-05-14T01:05:45;6.82;;;5.93;;
28828;SDS011;15966;51.540;11.870;2023-05-14T01:08:25;6.57;;;5.93;;
28828;SDS011;15966;51.540;11.870;2023-05-14T01:11:04;12.90;;;6.53;;
28828;SDS011;15966;51.540;11.870;2023-05-14T01:13:47;8.52;;;7.63;;
28828;SDS011;15966;51.540;11.870;2023-05-14T01:16:23;7.28;;;6.68;;
28828;SDS011;15966;51.540;11.870;2023-05-14T01:18:52;7.93;;;7.22;;
28828;SDS011;15966;51.540;11.870;2023-05-14T01:21:23;7.97;;;7.22;;
28828;SDS011;15966;51.540;11.870;2023-05-14T01:23:53;6.95;;;6.35;;
28828;SDS011;15966;51.540;11.870;2023-05-14T01:26:19;7.43;;;6.72;;
28828;SDS011;15966;51.540;11.870;2023-05-14T01:28:45;7.95;;;7.25;;
28828;SDS011;15966;51.540;11.870;2023-05-14T01:31:15;8.82;;;6.75;;
28828;SDS011;15966;51.540;11.870;2023-05-14T01:33:43;7.63;;;6.82;;
28828;SDS011;15966;51.540;11.870;2023-05-14T01:36:11;7.40;;;6.80;;
28828;SDS011;15966;51.540;11.870;2023-05-14T01:38:37;8.35;;;7.55;;
28828;SDS011;15966;51.540;11.870;2023-05-14T01:41:04;7.30;;;6.70;;
28828;SDS011;15966;51.540;11.870;2023-05-14T01:43:30;6.90;;;6.30;;
28828;SDS011;15966;51.540;11.870;2023-05-14T01:45:56;10.45;;;7.95;;
28828;SDS011;15966;51.540;11.870;2023-05-14T01:48:22;6.93;;;6.22;;
28828;SDS011;15966;51.540;11.870;2023-05-14T01:50:48;7.47;;;6.72;;
28828;SDS011;15966;51.540;11.870;2023-05-14T01:53:14;7.75;;;7.05;;
28828;SDS011;15966;51.540;11.870;2023-05-14T01:55:40;8.73;;;7.10;;
28828;SDS011;15966;51.540;11.870;2023-05-14T01:58:06;7.20;;;6.60;;
28828;SDS011;15966;51.540;11.870;2023-05-14T02:00:32;8.73;;;7.82;;
28828;SDS011;15966;51.540;11.870;2023-05-14T02:02:58;6.95;;;6.22;;
28828;SDS011;15966;51.540;11.870;2023-05-14T02:05:24;6.60;;;5.88;;
28828;SDS011;15966;51.540;11.870;2023-05-14T02:07:51;6.97;;;6.38;;
28828;SDS011;15966;51.540;11.870;2023-05-14T02:10:17;6.68;;;6.18;;
28828;SDS011;15966;51.540;11.870;2023-05-14T02:12:43;7.05;;;5.45;;
28828;SDS011;15966;51.540;11.870;2023-05-14T02:15:09;8.60;;;7.80;;
28828;SDS011;15966;51.540;11.870;2023-05-14T02:17:35;6.30;;;5.78;;
28828;SDS011;15966;51.540;11.870;2023-05-14T02:20:01;8.77;;;6.50;;
28828;SDS011;15966;51.540;11.870;2023-05-14T02:22:28;8.15;;;7.13;;
28828;SDS011;15966;51.540;11.870;2023-05-14T02:24:54;6.45;;;5.85;;
28828;SDS011;15966;51.540;11.870;2023-05-14T02:27:20;7.70;;;7.00;;
28828;SDS011;15966;51.540;11.870;2023-05-14T02:29:46;8.73;;;7.63;;
28828;SDS011;15966;51.540;11.870;2023-05-14T02:32:12;7.28;;;6.55;;
28828;SDS011;15966;51.540;11.870;2023-05-14T02:34:38;7.68;;;6.97;;
28828;SDS011;15966;51.540;11.870;2023-05-14T02:37:04;6.90;;;6.30;;
28828;SDS011;15966;51.540;11.870;2023-05-14T02:39:30;8.10;;;7.40;;
28828;SDS011;15966;51.540;11.870;2023-05-14T02:41:56;6.90;;;6.28;;
28828;SDS011;15966;51.540;11.870;2023-05-14T02:44:23;7.78;;;6.63;;
28828;SDS011;15966;51.540;11.870;2023-05-14T02:46:49;7.88;;;6.82;;
28828;SDS011;15966;51.540;11.870;2023-05-14T02:49:15;9.68;;;7.25;;
28828;SDS011;15966;51.540;11.870;2023-05-14T02:51:41;7.10;;;6.40;;
28828;SDS011;15966;51.540;11.870;2023-05-14T02:54:07;7.75;;;6.88;;
28828;SDS011;15966;51.540;11.870;2023-05-14T02:56:33;7.82;;;7.13;;
28828;SDS011;15966;51.540;11.870;2023-05-14T02:58:59;8.45;;;6.53;;
28828;SDS011;15966;51.540;11.870;2023-05-14T03:01:25;7.50;;;6.80;;
28828;SDS011;15966;51.540;11.870;2023-05-14T03:03:51;8.10;;;7.30;;
28828;SDS011;15966;51.540;11.870;2023-05-14T03:06:17;7.82;;;7.03;;
28828;SDS011;15966;51.540;11.870;2023-05-14T03:08:43;7.70;;;6.97;;
28828;SDS011;15966;51.540;11.870;2023-05-14T03:11:09;7.57;;;6.88;;
28828;SDS011;15966;51.540;11.870;2023-05-14T03:13:35;8.00;;;7.18;;
28828;SDS011;15966;51.540;11.870;2023-05-14T03:16:02;7.72;;;6.93;;
28828;SDS011;15966;51.540;11.870;2023-05-14T03:18:28;7.38;;;6.68;;
28828;SDS011;15966;51.540;11.870;2023-05-14T03:20:54;8.13;;;7.43;;
28828;SDS011;15966;51.540;11.870;2023-05-14T03:23:20;7.53;;;6.82;;
28828;SDS011;15966;51.540;11.870;2023-05-14T03:25:46;8.70;;;7.85;;
28828;SDS011;15966;51.540;11.870;2023-05-14T03:28:12;7.50;;;6.90;;
28828;SDS011;15966;51.540;11.870;2023-05-14T03:30:38;7.90;;;7.10;;
28828;SDS011;15966;51.540;11.870;2023-05-14T03:33:05;7.70;;;7.00;;
28828;SDS011;15966;51.540;11.870;2023-05-14T03:35:31;7.38;;;6.72;;
28828;SDS011;15966;51.540;11.870;2023-05-14T03:37:57;9.40;;;8.10;;
28828;SDS011;15966;51.540;11.870;2023-05-14T03:40:23;8.40;;;7.53;;
28828;SDS011;15966;51.540;11.870;2023-05-14T03:42:49;7.60;;;6.85;;
28828;SDS011;15966;51.540;11.870;2023-05-14T03:45:15;9.43;;;7.68;;
28828;SDS011;15966;51.540;11.870;2023-05-14T03:47:41;7.15;;;6.43;;
28828;SDS011;15966;51.540;11.870;2023-05-14T03:50:07;8.55;;;7.75;;
28828;SDS011;15966;51.540;11.870;2023-05-14T03:52:34;8.07;;;7.35;;
28828;SDS011;15966;51.540;11.870;2023-05-14T03:55:00;8.05;;;7.35;;
28828;SDS011;15966;51.540;11.870;2023-05-14T03:57:26;8.38;;;7.57;;
28828;SDS011;15966;51.540;11.870;2023-05-14T03:59:52;8.88;;;7.95;;
28828;SDS011;15966;51.540;11.870;2023-05-14T04:02:18;8.55;;;6.78;;
28828;SDS011;15966;51.540;11.870;2023-05-14T04:04:44;6.93;;;6.22;;
28828;SDS011;15966;51.540;11.870;2023-05-14T04:07:10;7.32;;;6.63;;
28828;SDS011;15966;51.540;11.870;2023-05-14T04:09:36;8.40;;;7.47;;
28828;SDS011;15966;51.540;11.870;2023-05-14T04:12:02;8.30;;;7.50;;
28828;SDS011;15966;51.540;11.870;2023-05-14T04:14:29;8.10;;;7.35;;
28828;SDS011;15966;51.540;11.870;2023-05-14T04:16:55;8.77;;;7.35;;
28828;SDS011;15966;51.540;11.870;2023-05-14T04:19:21;6.95;;;6.40;;
28828;SDS011;15966;51.540;11.870;2023-05-14T04:21:47;7.57;;;6.95;;
28828;SDS011;15966;51.540;11.870;2023-05-14T04:24:13;8.68;;;6.85;;
28828;SDS011;15966;51.540;11.870;2023-05-14T04:26:40;8.15;;;7.45;;
28828;SDS011;15966;51.540;11.870;2023-05-14T04:29:06;7.93;;;7.30;;
28828;SDS011;15966;51.540;11.870;2023-05-14T04:31:32;9.10;;;8.30;;
28828;SDS011;15966;51.540;11.870;2023-05-14T04:33:58;9.65;;;8.77;;
28828;SDS011;15966;51.540;11.870;2023-05-14T04:36:25;8.57;;;7.82;;
28828;SDS011;15966;51.540;11.870;2023-05-14T04:38:51;9.85;;;8.98;;
28828;SDS011;15966;51.540;11.870;2023-05-14T04:41:17;19.05;;;13.82;;
28828;SDS011;15966;51.540;11.870;2023-05-14T04:43:43;15.48;;;14.05;;
28828;SDS011;15966;51.540;11.870;2023-05-14T04:46:10;15.67;;;14.27;;
28828;SDS011;15966;51.540;11.870;2023-05-14T04:48:36;11.80;;;10.60;;
28828;SDS011;15966;51.540;11.870;2023-05-14T04:51:02;10.52;;;9.60;;
28828;SDS011;15966;51.540;11.870;2023-05-14T04:53:28;12.15;;;11.05;;
28828;SDS011;15966;51.540;11.870;2023-05-14T04:55:54;11.70;;;10.60;;
28828;SDS011;15966;51.540;11.870;2023-05-14T04:58:20;11.55;;;10.50;;
28828;SDS011;15966;51.540;11.870;2023-05-14T05:00:48;11.93;;;10.80;;
28828;SDS011;15966;51.540;11.870;2023-05-14T05:03:14;14.05;;;11.75;;
28828;SDS011;15966;51.540;11.870;2023-05-14T05:05:40;11.32;;;10.32;;
28828;SDS011;15966;51.540;11.870;2023-05-14T05:08:06;11.65;;;10.65;;
28828;SDS011;15966;51.540;11.870;2023-05-14T05:10:32;10.60;;;9.60;;
28828;SDS011;15966;51.540;11.870;2023-05-14T05:12:58;12.55;;;11.07;;
28828;SDS011;15966;51.540;11.870;2023-05-14T05:15:24;13.38;;;12.05;;
28828;SDS011;15966;51.540;11.870;2023-05-14T05:17:51;13.80;;;12.32;;
28828;SDS011;15966;51.540;11.870;2023-05-14T05:20:17;12.38;;;11.25;;
28828;SDS011;15966;51.540;11.870;2023-05-14T05:22:43;12.13;;;10.98;;
28828;SDS011;15966;51.540;11.870;2023-05-14T05:25:09;14.13;;;12.68;;
28828;SDS011;15966;51.540;11.870;2023-05-14T05:27:36;12.40;;;11.25;;
28828;SDS011;15966;51.540;11.870;2023-05-14T05:30:03;11.15;;;9.98;;
28828;SDS011;15966;51.540;11.870;2023-05-14T05:32:30;11.15;;;10.20;;
28828;SDS011;15966;51.540;11.870;2023-05-14T05:34:56;10.73;;;9.82;;
28828;SDS011;15966;51.540;11.870;2023-05-14T05:37:22;12.27;;;10.70;;
28828;SDS011;15966;51.540;11.870;2023-05-14T05:39:48;11.45;;;10.02;;
28828;SDS011;15966;51.540;11.870;2023-05-14T05:42:14;11.23;;;10.05;;
28828;SDS011;15966;51.540;11.870;2023-05-14T05:44:40;12.85;;;9.80;;
28828;SDS011;15966;51.540;11.870;2023-05-14T05:47:06;12.20;;;11.00;;
28828;SDS011;15966;51.540;11.870;2023-05-14T05:49:32;9.70;;;8.80;;
28828;SDS011;15966;51.540;11.870;2023-05-14T05:52:00;10.25;;;9.35;;
28828;SDS011;15966;51.540;11.870;2023-05-14T05:54:27;11.20;;;9.30;;
28828;SDS011;15966;51.540;11.870;2023-05-14T05:56:53;10.07;;;9.18;;
28828;SDS011;15966;51.540;11.870;2023-05-14T05:59:19;9.55;;;8.70;;
28828;SDS011;15966;51.540;11.870;2023-05-14T06:01:45;10.23;;;9.32;;
28828;SDS011;15966;51.540;11.870;2023-05-14T06:04:12;10.32;;;9.25;;
28828;SDS011;15966;51.540;11.870;2023-05-14T06:06:38;9.18;;;8.38;;
28828;SDS011;15966;51.540;11.870;2023-05-14T06:09:04;10.07;;;9.18;;
28828;SDS011;15966;51.540;11.870;2023-05-14T06:11:30;10.35;;;9.27;;
28828;SDS011;15966;51.540;11.870;2023-05-14T06:13:56;10.95;;;9.90;;
28828;SDS011;15966;51.540;11.870;2023-05-14T06:16:23;12.48;;;11.05;;
28828;SDS011;15966;51.540;11.870;2023-05-14T06:18:49;12.95;;;11.75;;
28828;SDS011;15966;51.540;11.870;2023-05-14T06:21:16;11.20;;;10.07;;
28828;SDS011;15966;51.540;11.870;2023-05-14T06:23:43;11.38;;;10.05;;
28828;SDS011;15966;51.540;11.870;2023-05-14T06:26:09;9.57;;;7.97;;
28828;SDS011;15966;51.540;11.870;2023-05-14T06:28:35;8.40;;;7.70;;
28828;SDS011;15966;51.540;11.870;2023-05-14T06:31:01;11.20;;;10.00;;
28828;SDS011;15966;51.540;11.870;2023-05-14T06:33:27;11.30;;;10.30;;
28828;SDS011;15966;51.540;11.870;2023-05-14T06:35:55;9.85;;;8.85;;
28828;SDS011;15966;51.540;11.870;2023-05-14T06:40:48;13.23;;;9.50;;
28828;SDS011;15966;51.540;11.870;2023-05-14T06:43:15;10.75;;;9.68;;
28828;SDS011;15966;51.540;11.870;2023-05-14T06:45:41;12.85;;;10.32;;
28828;SDS011;15966;51.540;11.870;2023-05-14T06:48:07;14.23;;;9.88;;
28828;SDS011;15966;51.540;11.870;2023-05-14T06:50:34;11.40;;;10.23;;
28828;SDS011;15966;51.540;11.870;2023-05-14T06:53:00;12.00;;;10.27;;
28828;SDS011;15966;51.540;11.870;2023-05-14T06:55:26;10.80;;;9.77;;
28828;SDS011;15966;51.540;11.870;2023-05-14T06:57:52;12.40;;;10.57;;
28828;SDS011;15966;51.540;11.870;2023-05-14T07:00:18;10.65;;;9.43;;
28828;SDS011;15966;51.540;11.870;2023-05-14T07:02:45;11.77;;;10.70;;
28828;SDS011;15966;51.540;11.870;2023-05-14T07:05:11;15.98;;;11.88;;
28828;SDS011;15966;51.540;11.870;2023-05-14T07:07:38;12.35;;;11.18;;
28828;SDS011;15966;51.540;11.870;2023-05-14T07:10:04;13.48;;;11.02;;
28828;SDS011;15966;51.540;11.870;2023-05-14T07:14:58;7.60;;;6.88;;
28828;SDS011;15966;51.540;11.870;2023-05-14T07:17:24;7.90;;;6.93;;
28828;SDS011;15966;51.540;11.870;2023-05-14T07:19:50;8.82;;;6.88;;
28828;SDS011;15966;51.540;11.870;2023-05-14T07:22:16;7.95;;;6.45;;
28828;SDS011;15966;51.540;11.870;2023-05-14T07:24:42;6.55;;;5.63;;
28828;SDS011;15966;51.540;11.870;2023-05-14T07:27:08;7.10;;;5.85;;
28828;SDS011;15966;51.540;11.870;2023-05-14T07:29:34;16.13;;;5.63;;
28828;SDS011;15966;51.540;11.870;2023-05-14T07:32:00;5.85;;;5.35;;
28828;SDS011;15966;51.540;11.870;2023-05-14T07:34:26;9.35;;;6.03;;
28828;SDS011;15966;51.540;11.870;2023-05-14T07:36:53;7.25;;;6.55;;
28828;SDS011;15966;51.540;11.870;2023-05-14T07:39:19;6.82;;;6.10;;
28828;SDS011;15966;51.540;11.870;2023-05-14T07:41:45;9.23;;;6.15;;
28828;SDS011;15966;51.540;11.870;2023-05-14T07:44:11;6.70;;;6.10;;
28828;SDS011;15966;51.540;11.870;2023-05-14T07:46:37;8.02;;;6.47;;
28828;SDS011;15966;51.540;11.870;2023-05-14T07:49:03;6.90;;;6.15;;
28828;SDS011;15966;51.540;11.870;2023-05-14T07:51:29;7.72;;;5.78;;
28828;SDS011;15966;51.540;11.870;2023-05-14T07:53:57;6.35;;;5.45;;
28828;SDS011;15966;51.540;11.870;2023-05-14T07:56:23;5.18;;;4.68;;
28828;SDS011;15966;51.540;11.870;2023-05-14T07:58:50;5.85;;;5.35;;
28828;SDS011;15966;51.540;11.870;2023-05-14T08:01:16;7.10;;;5.10;;
28828;SDS011;15966;51.540;11.870;2023-05-14T08:03:42;6.85;;;6.05;;
28828;SDS011;15966;51.540;11.870;2023-05-14T08:06:08;6.30;;;5.20;;
28828;SDS011;15966;51.540;11.870;2023-05-14T08:08:34;7.15;;;6.45;;
28828;SDS011;15966;51.540;11.870;2023-05-14T08:11:01;5.63;;;5.13;;
28828;SDS011;15966;51.540;11.870;2023-05-14T08:13:27;7.25;;;6.25;;
28828;SDS011;15966;51.540;11.870;2023-05-14T08:15:54;7.50;;;6.80;;
28828;SDS011;15966;51.540;11.870;2023-05-14T08:18:20;6.80;;;6.10;;
28828;SDS011;15966;51.540;11.870;2023-05-14T08:20:46;7.25;;;6.57;;
28828;SDS011;15966;51.540;11.870;2023-05-14T08:23:12;8.68;;;6.85;;
28828;SDS011;15966;51.540;11.870;2023-05-14T08:25:39;7.00;;;6.30;;
28828;SDS011;15966;51.540;11.870;2023-05-14T08:28:05;6.70;;;6.10;;
28828;SDS011;15966;51.540;11.870;2023-05-14T08:30:32;7.78;;;7.00;;
28828;SDS011;15966;51.540;11.870;2023-05-14T08:32:58;8.45;;;7.65;;
28828;SDS011;15966;51.540;11.870;2023-05-14T08:35:24;6.70;;;6.05;;
28828;SDS011;15966;51.540;11.870;2023-05-14T08:37:50;7.32;;;6.55;;
28828;SDS011;15966;51.540;11.870;2023-05-14T08:40:16;7.28;;;6.57;;
28828;SDS011;15966;51.540;11.870;2023-05-14T08:42:42;10.10;;;6.68;;
28828;SDS011;15966;51.540;11.870;2023-05-14T08:45:12;7.72;;;7.05;;
28828;SDS011;15966;51.540;11.870;2023-05-14T08:47:49;10.27;;;6.68;;
28828;SDS011;15966;51.540;11.870;2023-05-14T08:50:16;7.90;;;7.10;;
28828;SDS011;15966;51.540;11.870;2023-05-14T08:52:44;9.48;;;5.93;;
28828;SDS011;15966;51.540;11.870;2023-05-14T08:55:10;7.68;;;6.57;;
28828;SDS011;15966;51.540;11.870;2023-05-14T08:57:37;7.10;;;5.53;;
28828;SDS011;15966;51.540;11.870;2023-05-14T09:00:03;6.22;;;5.30;;
28828;SDS011;15966;51.540;11.870;2023-05-14T09:02:32;6.80;;;5.50;;
28828;SDS011;15966;51.540;11.870;2023-05-14T09:04:59;5.10;;;4.60;;
28828;SDS011;15966;51.540;11.870;2023-05-14T09:07:26;4.10;;;3.80;;
28828;SDS011;15966;51.540;11.870;2023-05-14T09:09:53;5.47;;;3.65;;
28828;SDS011;15966;51.540;11.870;2023-05-14T09:12:20;5.68;;;4.57;;
28828;SDS011;15966;51.540;11.870;2023-05-14T09:14:46;7.85;;;3.78;;
28828;SDS011;15966;51.540;11.870;2023-05-14T09:17:13;4.03;;;3.70;;
28828;SDS011;15966;51.540;11.870;2023-05-14T09:19:39;6.55;;;5.05;;
28828;SDS011;15966;51.540;11.870;2023-05-14T09:22:12;5.95;;;4.57;;
28828;SDS011;15966;51.540;11.870;2023-05-14T09:24:40;4.72;;;4.32;;
28828;SDS011;15966;51.540;11.870;2023-05-14T09:27:07;4.60;;;4.20;;
28828;SDS011;15966;51.540;11.870;2023-05-14T09:29:34;5.90;;;4.80;;
28828;SDS011;15966;51.540;11.870;2023-05-14T09:32:01;5.25;;;4.70;;
28828;SDS011;15966;51.540;11.870;2023-05-14T09:34:30;6.50;;;5.90;;
28828;SDS011;15966;51.540;11.870;2023-05-14T09:36:57;7.63;;;4.85;;
28828;SDS011;15966;51.540;11.870;2023-05-14T09:39:25;4.25;;;3.85;;
28828;SDS011;15966;51.540;11.870;2023-05-14T09:41:51;7.33;;;4.60;;
28828;SDS011;15966;51.540;11.870;2023-05-14T09:44:18;6.90;;;4.65;;
28828;SDS011;15966;51.540;11.870;2023-05-14T09:46:45;5.13;;;4.60;;
28828;SDS011;15966;51.540;11.870;2023-05-14T09:49:11;4.90;;;3.90;;
28828;SDS011;15966;51.540;11.870;2023-05-14T09:51:37;5.13;;;4.63;;
28828;SDS011;15966;51.540;11.870;2023-05-14T09:54:04;4.70;;;3.88;;
28828;SDS011;15966;51.540;11.870;2023-05-14T09:56:33;11.43;;;4.47;;
28828;SDS011;15966;51.540;11.870;2023-05-14T09:59:00;4.75;;;4.30;;
28828;SDS011;15966;51.540;11.870;2023-05-14T10:01:27;5.63;;;4.28;;
28828;SDS011;15966;51.540;11.870;2023-05-14T10:03:54;7.50;;;4.80;;
28828;SDS011;15966;51.540;11.870;2023-05-14T10:06:22;6.22;;;5.63;;
28828;SDS011;15966;51.540;11.870;2023-05-14T10:08:56;7.13;;;4.72;;
28828;SDS011;15966;51.540;11.870;2023-05-14T10:11:25;6.18;;;4.55;;
28828;SDS011;15966;51.540;11.870;2023-05-14T10:14:10;5.78;;;4.70;;
28828;SDS011;15966;51.540;11.870;2023-05-14T10:16:49;5.30;;;4.65;;
28828;SDS011;15966;51.540;11.870;2023-05-14T10:19:16;8.77;;;4.20;;
28828;SDS011;15966;51.540;11.870;2023-05-14T10:21:46;5.90;;;5.15;;
28828;SDS011;15966;51.540;11.870;2023-05-14T10:24:13;5.07;;;4.57;;
28828;SDS011;15966;51.540;11.870;2023-05-14T10:26:39;9.00;;;4.80;;
28828;SDS011;15966;51.540;11.870;2023-05-14T10:29:06;9.77;;;4.68;;
28828;SDS011;15966;51.540;11.870;2023-05-14T10:31:51;8.20;;;4.72;;
28828;SDS011;15966;51.540;11.870;2023-05-14T10:34:29;5.25;;;4.63;;
28828;SDS011;15966;51.540;11.870;2023-05-14T10:37:05;6.13;;;4.60;;
28828;SDS011;15966;51.540;11.870;2023-05-14T10:42:27;5.47;;;4.53;;
28828;SDS011;15966;51.540;11.870;2023-05-14T10:45:00;4.97;;;4.47;;
28828;SDS011;15966;51.540;11.870;2023-05-14T10:47:31;4.40;;;4.00;;
28828;SDS011;15966;51.540;11.870;2023-05-14T10:49:58;4.25;;;3.83;;
28828;SDS011;15966;51.540;11.870;2023-05-14T10:52:29;4.45;;;4.00;;
28828;SDS011;15966;51.540;11.870;2023-05-14T10:54:56;4.70;;;4.30;;
28828;SDS011;15966;51.540;11.870;2023-05-14T10:57:25;6.03;;;3.70;;
28828;SDS011;15966;51.540;11.870;2023-05-14T10:59:53;5.55;;;3.95;;
28828;SDS011;15966;51.540;11.870;2023-05-14T11:02:24;4.47;;;4.07;;
28828;SDS011;15966;51.540;11.870;2023-05-14T11:07:28;6.57;;;3.92;;
28828;SDS011;15966;51.540;11.870;2023-05-14T11:10:03;6.40;;;3.92;;
28828;SDS011;15966;51.540;11.870;2023-05-14T11:12:46;4.57;;;3.78;;
28828;SDS011;15966;51.540;11.870;2023-05-14T11:15:14;4.38;;;3.97;;
28828;SDS011;15966;51.540;11.870;2023-05-14T11:17:42;7.90;;;3.97;;
28828;SDS011;15966;51.540;11.870;2023-05-14T11:20:10;7.72;;;4.55;;
28828;SDS011;15966;51.540;11.870;2023-05-14T11:22:37;5.80;;;4.45;;
28828;SDS011;15966;51.540;11.870;2023-05-14T11:25:04;5.95;;;4.72;;
28828;SDS011;15966;51.540;11.870;2023-05-14T11:27:32;6.50;;;4.90;;
28828;SDS011;15966;51.540;11.870;2023-05-14T11:29:59;6.30;;;4.57;;
28828;SDS011;15966;51.540;11.870;2023-05-14T11:32:25;5.70;;;4.65;;
28828;SDS011;15966;51.540;11.870;2023-05-14T11:34:51;7.07;;;4.85;;
28828;SDS011;15966;51.540;11.870;2023-05-14T11:37:17;5.22;;;3.90;;
28828;SDS011;15966;51.540;11.870;2023-05-14T11:39:47;12.60;;;4.60;;
28828;SDS011;15966;51.540;11.870;2023-05-14T11:42:15;7.75;;;4.80;;
28828;SDS011;15966;51.540;11.870;2023-05-14T11:44:44;6.32;;;4.90;;
28828;SDS011;15966;51.540;11.870;2023-05-14T11:47:14;7.18;;;4.47;;
28828;SDS011;15966;51.540;11.870;2023-05-14T11:49:41;5.65;;;4.25;;
28828;SDS011;15966;51.540;11.870;2023-05-14T11:52:07;7.22;;;4.25;;
28828;SDS011;15966;51.540;11.870;2023-05-14T11:54:35;4.95;;;3.88;;
28828;SDS011;15966;51.540;11.870;2023-05-14T11:57:03;7.70;;;4.80;;
28828;SDS011;15966;51.540;11.870;2023-05-14T11:59:36;5.45;;;4.53;;
28828;SDS011;15966;51.540;11.870;2023-05-14T12:02:02;7.75;;;4.75;;
28828;SDS011;15966;51.540;11.870;2023-05-14T12:04:29;5.50;;;4.80;;
28828;SDS011;15966;51.540;11.870;2023-05-14T12:06:56;5.78;;;3.97;;
28828;SDS011;15966;51.540;11.870;2023-05-14T12:09:23;5.38;;;4.88;;
28828;SDS011;15966;51.540;11.870;2023-05-14T12:11:50;5.80;;;5.00;;
28828;SDS011;15966;51.540;11.870;2023-05-14T12:14:18;6.85;;;4.15;;
28828;SDS011;15966;51.540;11.870;2023-05-14T12:16:45;6.65;;;4.38;;
28828;SDS011;15966;51.540;11.870;2023-05-14T12:19:15;5.43;;;4.93;;
28828;SDS011;15966;51.540;11.870;2023-05-14T12:21:43;5.22;;;4.13;;
28828;SDS011;15966;51.540;11.870;2023-05-14T12:24:11;3.92;;;3.42;;
28828;SDS011;15966;51.540;11.870;2023-05-14T12:26:38;4.55;;;3.67;;
28828;SDS011;15966;51.540;11.870;2023-05-14T12:31:32;9.43;;;3.97;;
28828;SDS011;15966;51.540;11.870;2023-05-14T12:33:58;5.22;;;4.45;;
28828;SDS011;15966;51.540;11.870;2023-05-14T12:36:24;6.57;;;4.00;;
28828;SDS011;15966;51.540;11.870;2023-05-14T12:38:56;5.95;;;3.95;;
28828;SDS011;15966;51.540;11.870;2023-05-14T12:41:24;6.40;;;4.30;;
28828;SDS011;15966;51.540;11.870;2023-05-14T12:43:50;5.05;;;4.55;;
28828;SDS011;15966;51.540;11.870;2023-05-14T12:46:16;7.75;;;4.60;;
28828;SDS011;15966;51.540;11.870;2023-05-14T12:48:42;4.82;;;3.83;;
28828;SDS011;15966;51.540;11.870;2023-05-14T12:51:08;6.25;;;3.78;;
28828;SDS011;15966;51.540;11.870;2023-05-14T12:53:34;5.32;;;4.68;;
28828;SDS011;15966;51.540;11.870;2023-05-14T12:56:01;5.70;;;4.38;;
28828;SDS011;15966;51.540;11.870;2023-05-14T12:58:27;7.53;;;4.28;;
28828;SDS011;15966;51.540;11.870;2023-05-14T13:00:53;7.75;;;4.45;;
28828;SDS011;15966;51.540;11.870;2023-05-14T13:03:19;5.47;;;4.25;;
28828;SDS011;15966;51.540;11.870;2023-05-14T13:05:45;4.13;;;3.83;;
28828;SDS011;15966;51.540;11.870;2023-05-14T13:08:11;6.47;;;4.50;;
28828;SDS011;15966;51.540;11.870;2023-05-14T13:10:41;4.95;;;4.55;;
28828;SDS011;15966;51.540;11.870;2023-05-14T13:13:08;4.07;;;3.78;;
28828;SDS011;15966;51.540;11.870;2023-05-14T13:15:35;4.82;;;4.10;;
28828;SDS011;15966;51.540;11.870;2023-05-14T13:18:02;4.80;;;4.30;;
28828;SDS011;15966;51.540;11.870;2023-05-14T13:20:28;8.00;;;4.82;;
28828;SDS011;15966;51.540;11.870;2023-05-14T13:22:55;7.27;;;3.67;;
28828;SDS011;15966;51.540;11.870;2023-05-14T13:25:21;5.10;;;3.72;;
28828;SDS011;15966;51.540;11.870;2023-05-14T13:27:47;9.37;;;4.30;;
28828;SDS011;15966;51.540;11.870;2023-05-14T13:30:16;6.45;;;3.95;;
28828;SDS011;15966;51.540;11.870;2023-05-14T13:32:43;6.57;;;3.60;;
28828;SDS011;15966;51.540;11.870;2023-05-14T13:35:09;5.88;;;3.67;;
28828;SDS011;15966;51.540;11.870;2023-05-14T13:37:35;4.00;;;3.60;;
28828;SDS011;15966;51.540;11.870;2023-05-14T13:40:01;4.40;;;4.00;;
28828;SDS011;15966;51.540;11.870;2023-05-14T13:42:28;4.43;;;3.72;;
28828;SDS011;15966;51.540;11.870;2023-05-14T13:44:54;4.88;;;3.30;;
28828;SDS011;15966;51.540;11.870;2023-05-14T13:47:23;4.05;;;3.58;;
28828;SDS011;15966;51.540;11.870;2023-05-14T13:49:53;5.90;;;4.17;;
28828;SDS011;15966;51.540;11.870;2023-05-14T13:52:20;4.32;;;3.95;;
28828;SDS011;15966;51.540;11.870;2023-05-14T13:54:46;4.13;;;3.22;;
28828;SDS011;15966;51.540;11.870;2023-05-14T13:57:13;4.38;;;4.00;;
28828;SDS011;15966;51.540;11.870;2023-05-14T13:59:39;5.90;;;3.50;;
28828;SDS011;15966;51.540;11.870;2023-05-14T14:02:06;3.25;;;2.88;;
28828;SDS011;15966;51.540;11.870;2023-05-14T14:04:32;5.15;;;2.60;;
28828;SDS011;15966;51.540;11.870;2023-05-14T14:06:58;6.68;;;3.08;;
28828;SDS011;15966;51.540;11.870;2023-05-14T14:09:24;3.38;;;3.08;;
28828;SDS011;15966;51.540;11.870;2023-05-14T14:11:50;3.50;;;3.20;;
28828;SDS011;15966;51.540;11.870;2023-05-14T14:14:17;3.33;;;2.95;;
28828;SDS011;15966;51.540;11.870;2023-05-14T14:16:43;3.63;;;3.33;;
28828;SDS011;15966;51.540;11.870;2023-05-14T14:19:09;3.50;;;3.20;;
28828;SDS011;15966;51.540;11.870;2023-05-14T14:21:35;2.80;;;2.60;;
28828;SDS011;15966;51.540;11.870;2023-05-14T14:24:03;4.20;;;3.22;;
28828;SDS011;15966;51.540;11.870;2023-05-14T14:26:30;3.83;;;3.20;;
28828;SDS011;15966;51.540;11.870;2023-05-14T14:28:56;5.80;;;3.90;;
28828;SDS011;15966;51.540;11.870;2023-05-14T14:31:22;6.25;;;4.22;;
28828;SDS011;15966;51.540;11.870;2023-05-14T14:33:48;4.28;;;3.38;;
28828;SDS011;15966;51.540;11.870;2023-05-14T14:36:14;3.85;;;3.03;;
28828;SDS011;15966;51.540;11.870;2023-05-14T14:38:40;3.80;;;3.45;;
28828;SDS011;15966;51.540;11.870;2023-05-14T14:41:06;5.70;;;4.22;;
28828;SDS011;15966;51.540;11.870;2023-05-14T14:43:33;4.00;;;3.65;;